sensor_id;sensor_type;location;lat;lon;timestamp;P1;durP1;ratioP1;P2;durP2;ratioP2
27921;SDS011;15261;50.356;10.340;2023-10-09T00:00:11;2.22;;;2.00;;
27921;SDS011;15261;50.356;10.340;2023-10-09T00:02:56;1.85;;;1.75;;
27921;SDS011;15261;50.356;10.340;2023-10-09T00:05:25;2.33;;;1.73;;
27921;SDS011;15261;50.356;10.340;2023-10-09T00:08:13;3.40;;;1.80;;
27921;SDS011;15261;50.356;10.340;2023-10-09T00:10:46;4.03;;;2.33;;
27921;SDS011;15261;50.356;10.340;2023-10-09T00:13:18;2.00;;;1.70;;
27921;SDS011;15261;50.356;10.340;2023-10-09T00:15:58;2.63;;;1.73;;
27921;SDS011;15261;50.356;10.340;2023-10-09T00:18:34;2.08;;;1.98;;
27921;SDS011;15261;50.356;10.340;2023-10-09T00:21:00;2.13;;;2.00;;
27921;SDS011;15261;50.356;10.340;2023-10-09T00:23:36;3.00;;;2.10;;
27921;SDS011;15261;50.356;10.340;2023-10-09T00:26:02;2.53;;;2.30;;
27921;SDS011;15261;50.356;10.340;2023-10-09T00:28:36;2.78;;;2.00;;
27921;SDS011;15261;50.356;10.340;2023-10-09T00:31:09;1.98;;;1.63;;
27921;SDS011;15261;50.356;10.340;2023-10-09T00:33:40;1.83;;;1.73;;
27921;SDS011;15261;50.356;10.340;2023-10-09T00:36:07;2.08;;;1.98;;
27921;SDS011;15261;50.356;10.340;2023-10-09T00:38:38;2.10;;;1.90;;
27921;SDS011;15261;50.356;10.340;2023-10-09T00:41:11;1.95;;;1.75;;
27921;SDS011;15261;50.356;10.340;2023-10-09T00:43:44;2.40;;;1.90;;
27921;SDS011;15261;50.356;10.340;2023-10-09T00:46:10;1.90;;;1.80;;
27921;SDS011;15261;50.356;10.340;2023-10-09T00:49:02;2.58;;;2.10;;
27921;SDS011;15261;50.356;10.340;2023-10-09T00:51:28;2.13;;;2.03;;
27921;SDS011;15261;50.356;10.340;2023-10-09T00:54:01;2.63;;;1.90;;
27921;SDS011;15261;50.356;10.340;2023-10-09T00:56:32;3.20;;;2.20;;
27921;SDS011;15261;50.356;10.340;2023-10-09T00:59:04;2.08;;;1.88;;
27921;SDS011;15261;50.356;10.340;2023-10-09T01:21:42;2.90;;;2.15;;
27921;SDS011;15261;50.356;10.340;2023-10-09T01:24:08;3.45;;;2.38;;
27921;SDS011;15261;50.356;10.340;2023-10-09T01:26:40;2.60;;;2.40;;
27921;SDS011;15261;50.356;10.340;2023-10-09T01:29:13;2.45;;;2.25;;
27921;SDS011;15261;50.356;10.340;2023-10-09T01:31:42;2.53;;;2.33;;
27921;SDS011;15261;50.356;10.340;2023-10-09T01:34:20;3.90;;;2.83;;
27921;SDS011;15261;50.356;10.340;2023-10-09T01:36:49;2.95;;;2.58;;
27921;SDS011;15261;50.356;10.340;2023-10-09T01:42:07;4.80;;;2.80;;
27921;SDS011;15261;50.356;10.340;2023-10-09T01:44:34;3.05;;;2.65;;
27921;SDS011;15261;50.356;10.340;2023-10-09T01:47:04;2.60;;;2.47;;
27921;SDS011;15261;50.356;10.340;2023-10-09T01:49:35;4.60;;;2.83;;
27921;SDS011;15261;50.356;10.340;2023-10-09T01:52:09;4.50;;;3.17;;
27921;SDS011;15261;50.356;10.340;2023-10-09T01:54:42;3.08;;;2.83;;
27921;SDS011;15261;50.356;10.340;2023-10-09T01:57:15;5.28;;;2.55;;
27921;SDS011;15261;50.356;10.340;2023-10-09T01:59:47;4.95;;;2.97;;
27921;SDS011;15261;50.356;10.340;2023-10-09T02:02:14;3.38;;;2.90;;
27921;SDS011;15261;50.356;10.340;2023-10-09T02:04:54;2.97;;;2.60;;
27921;SDS011;15261;50.356;10.340;2023-10-09T02:18:09;3.05;;;2.80;;
27921;SDS011;15261;50.356;10.340;2023-10-09T02:27:47;4.97;;;2.88;;
27921;SDS011;15261;50.356;10.340;2023-10-09T02:30:19;2.88;;;2.58;;
27921;SDS011;15261;50.356;10.340;2023-10-09T02:32:54;3.15;;;2.95;;
27921;SDS011;15261;50.356;10.340;2023-10-09T02:38:19;5.00;;;2.80;;
27921;SDS011;15261;50.356;10.340;2023-10-09T02:44:14;5.03;;;3.03;;
27921;SDS011;15261;50.356;10.340;2023-10-09T02:46:41;4.53;;;3.63;;
27921;SDS011;15261;50.356;10.340;2023-10-09T02:49:09;3.92;;;3.33;;
27921;SDS011;15261;50.356;10.340;2023-10-09T02:51:40;5.22;;;3.05;;
27921;SDS011;15261;50.356;10.340;2023-10-09T02:54:10;5.30;;;3.20;;
27921;SDS011;15261;50.356;10.340;2023-10-09T03:00:33;11.68;;;4.72;;
27921;SDS011;15261;50.356;10.340;2023-10-09T03:03:01;10.77;;;4.75;;
27921;SDS011;15261;50.356;10.340;2023-10-09T03:05:29;43.20;;;5.13;;
27921;SDS011;15261;50.356;10.340;2023-10-09T03:07:55;8.23;;;4.80;;
27921;SDS011;15261;50.356;10.340;2023-10-09T03:10:22;18.48;;;5.45;;
27921;SDS011;15261;50.356;10.340;2023-10-09T03:12:48;72.65;;;7.97;;
27921;SDS011;15261;50.356;10.340;2023-10-09T03:15:21;103.85;;;7.63;;
27921;SDS011;15261;50.356;10.340;2023-10-09T03:17:47;18.38;;;7.05;;
27921;SDS011;15261;50.356;10.340;2023-10-09T03:20:13;10.13;;;7.05;;
27921;SDS011;15261;50.356;10.340;2023-10-09T03:22:42;11.68;;;6.95;;
27921;SDS011;15261;50.356;10.340;2023-10-09T03:25:09;13.45;;;7.15;;
27921;SDS011;15261;50.356;10.340;2023-10-09T03:27:42;22.40;;;7.30;;
27921;SDS011;15261;50.356;10.340;2023-10-09T03:30:15;6.70;;;5.57;;
27921;SDS011;15261;50.356;10.340;2023-10-09T03:32:47;14.70;;;5.78;;
27921;SDS011;15261;50.356;10.340;2023-10-09T03:35:16;22.90;;;7.10;;
27921;SDS011;15261;50.356;10.340;2023-10-09T03:37:49;131.95;;;7.82;;
27921;SDS011;15261;50.356;10.340;2023-10-09T03:40:21;24.20;;;6.10;;
27921;SDS011;15261;50.356;10.340;2023-10-09T03:42:48;66.40;;;7.05;;
27921;SDS011;15261;50.356;10.340;2023-10-09T03:45:13;24.80;;;7.68;;
27921;SDS011;15261;50.356;10.340;2023-10-09T03:47:55;70.25;;;7.13;;
27921;SDS011;15261;50.356;10.340;2023-10-09T03:50:26;322.95;;;11.70;;
27921;SDS011;15261;50.356;10.340;2023-10-09T03:52:55;48.33;;;7.90;;
27921;SDS011;15261;50.356;10.340;2023-10-09T03:55:21;88.63;;;8.65;;
27921;SDS011;15261;50.356;10.340;2023-10-09T03:57:52;178.32;;;9.23;;
27921;SDS011;15261;50.356;10.340;2023-10-09T04:00:18;116.82;;;11.10;;
27921;SDS011;15261;50.356;10.340;2023-10-09T04:02:51;161.48;;;33.40;;
27921;SDS011;15261;50.356;10.340;2023-10-09T04:05:17;162.18;;;45.35;;
27921;SDS011;15261;50.356;10.340;2023-10-09T04:07:43;108.88;;;15.82;;
27921;SDS011;15261;50.356;10.340;2023-10-09T04:10:08;116.88;;;17.38;;
27921;SDS011;15261;50.356;10.340;2023-10-09T04:12:52;209.63;;;14.07;;
27921;SDS011;15261;50.356;10.340;2023-10-09T04:15:18;92.82;;;6.20;;
27921;SDS011;15261;50.356;10.340;2023-10-09T04:17:48;23.05;;;7.03;;
27921;SDS011;15261;50.356;10.340;2023-10-09T04:20:16;73.25;;;7.03;;
27921;SDS011;15261;50.356;10.340;2023-10-09T04:22:45;68.18;;;5.28;;
27921;SDS011;15261;50.356;10.340;2023-10-09T04:25:24;74.68;;;6.28;;
27921;SDS011;15261;50.356;10.340;2023-10-09T04:27:57;15.48;;;4.60;;
27921;SDS011;15261;50.356;10.340;2023-10-09T04:30:42;17.33;;;4.93;;
27921;SDS011;15261;50.356;10.340;2023-10-09T04:33:08;13.05;;;5.00;;
27921;SDS011;15261;50.356;10.340;2023-10-09T04:36:03;29.17;;;4.20;;
27921;SDS011;15261;50.356;10.340;2023-10-09T04:38:44;7.75;;;4.28;;
27921;SDS011;15261;50.356;10.340;2023-10-09T04:41:29;5.43;;;4.55;;
27921;SDS011;15261;50.356;10.340;2023-10-09T04:44:16;18.55;;;4.50;;
27921;SDS011;15261;50.356;10.340;2023-10-09T04:46:43;5.55;;;4.90;;
27921;SDS011;15261;50.356;10.340;2023-10-09T04:49:12;7.88;;;5.40;;
27921;SDS011;15261;50.356;10.340;2023-10-09T04:51:55;6.53;;;5.80;;
27921;SDS011;15261;50.356;10.340;2023-10-09T04:54:31;5.35;;;4.85;;
27921;SDS011;15261;50.356;10.340;2023-10-09T04:57:25;5.45;;;4.47;;
27921;SDS011;15261;50.356;10.340;2023-10-09T04:59:51;8.75;;;6.97;;
27921;SDS011;15261;50.356;10.340;2023-10-09T05:02:16;8.98;;;7.18;;
27921;SDS011;15261;50.356;10.340;2023-10-09T05:04:44;22.70;;;13.38;;
27921;SDS011;15261;50.356;10.340;2023-10-09T05:07:26;17.52;;;14.55;;
27921;SDS011;15261;50.356;10.340;2023-10-09T05:13:25;10.88;;;7.50;;
27921;SDS011;15261;50.356;10.340;2023-10-09T05:16:03;6.72;;;6.03;;
27921;SDS011;15261;50.356;10.340;2023-10-09T05:18:32;6.57;;;5.60;;
27921;SDS011;15261;50.356;10.340;2023-10-09T05:21:05;5.93;;;5.05;;
27921;SDS011;15261;50.356;10.340;2023-10-09T05:23:49;8.20;;;4.68;;
27921;SDS011;15261;50.356;10.340;2023-10-09T05:26:35;7.97;;;7.25;;
27921;SDS011;15261;50.356;10.340;2023-10-09T05:31:58;7.75;;;5.78;;
27921;SDS011;15261;50.356;10.340;2023-10-09T05:34:51;7.50;;;6.72;;
27921;SDS011;15261;50.356;10.340;2023-10-09T05:37:33;7.00;;;5.82;;
27921;SDS011;15261;50.356;10.340;2023-10-09T05:47:36;7.30;;;5.90;;
27921;SDS011;15261;50.356;10.340;2023-10-09T05:50:02;9.48;;;6.78;;
27921;SDS011;15261;50.356;10.340;2023-10-09T05:52:34;9.27;;;6.38;;
27921;SDS011;15261;50.356;10.340;2023-10-09T05:55:03;6.75;;;6.07;;
27921;SDS011;15261;50.356;10.340;2023-10-09T05:57:52;7.70;;;5.82;;
27921;SDS011;15261;50.356;10.340;2023-10-09T06:00:22;8.75;;;7.40;;
27921;SDS011;15261;50.356;10.340;2023-10-09T06:03:06;7.32;;;6.03;;
27921;SDS011;15261;50.356;10.340;2023-10-09T06:05:44;11.20;;;8.02;;
27921;SDS011;15261;50.356;10.340;2023-10-09T06:08:31;13.82;;;7.82;;
27921;SDS011;15261;50.356;10.340;2023-10-09T06:11:06;32.17;;;24.70;;
27921;SDS011;15261;50.356;10.340;2023-10-09T06:13:54;9.55;;;7.60;;
27921;SDS011;15261;50.356;10.340;2023-10-09T06:16:36;11.23;;;9.30;;
27921;SDS011;15261;50.356;10.340;2023-10-09T06:19:08;10.10;;;7.40;;
27921;SDS011;15261;50.356;10.340;2023-10-09T06:21:51;12.27;;;8.23;;
27921;SDS011;15261;50.356;10.340;2023-10-09T06:24:17;8.00;;;6.40;;
27921;SDS011;15261;50.356;10.340;2023-10-09T06:27:11;8.63;;;7.60;;
27921;SDS011;15261;50.356;10.340;2023-10-09T06:29:39;8.80;;;7.32;;
27921;SDS011;15261;50.356;10.340;2023-10-09T06:32:14;7.88;;;6.75;;
27921;SDS011;15261;50.356;10.340;2023-10-09T06:34:52;9.48;;;6.50;;
27921;SDS011;15261;50.356;10.340;2023-10-09T06:37:22;8.80;;;6.60;;
27921;SDS011;15261;50.356;10.340;2023-10-09T06:39:48;9.98;;;6.18;;
27921;SDS011;15261;50.356;10.340;2023-10-09T06:45:07;15.45;;;13.85;;
27921;SDS011;15261;50.356;10.340;2023-10-09T06:47:39;8.88;;;6.90;;
27921;SDS011;15261;50.356;10.340;2023-10-09T06:50:09;7.60;;;6.10;;
27921;SDS011;15261;50.356;10.340;2023-10-09T06:52:44;9.02;;;7.13;;
27921;SDS011;15261;50.356;10.340;2023-10-09T06:55:26;7.70;;;6.53;;
27921;SDS011;15261;50.356;10.340;2023-10-09T06:58:00;8.73;;;7.00;;
27921;SDS011;15261;50.356;10.340;2023-10-09T07:00:29;16.73;;;14.05;;
27921;SDS011;15261;50.356;10.340;2023-10-09T07:03:14;11.52;;;10.43;;
27921;SDS011;15261;50.356;10.340;2023-10-09T07:05:42;12.00;;;10.73;;
27921;SDS011;15261;50.356;10.340;2023-10-09T07:08:34;24.30;;;19.23;;
27921;SDS011;15261;50.356;10.340;2023-10-09T07:11:06;15.25;;;13.75;;
27921;SDS011;15261;50.356;10.340;2023-10-09T07:14:17;13.00;;;9.60;;
27921;SDS011;15261;50.356;10.340;2023-10-09T07:17:05;11.10;;;9.90;;
27921;SDS011;15261;50.356;10.340;2023-10-09T07:19:52;14.35;;;10.00;;
27921;SDS011;15261;50.356;10.340;2023-10-09T07:22:23;16.30;;;11.57;;
27921;SDS011;15261;50.356;10.340;2023-10-09T07:24:55;13.32;;;9.20;;
27921;SDS011;15261;50.356;10.340;2023-10-09T07:27:28;13.10;;;9.93;;
27921;SDS011;15261;50.356;10.340;2023-10-09T07:30:12;11.38;;;9.23;;
27921;SDS011;15261;50.356;10.340;2023-10-09T07:35:55;9.88;;;8.40;;
27921;SDS011;15261;50.356;10.340;2023-10-09T07:38:24;14.73;;;10.50;;
27921;SDS011;15261;50.356;10.340;2023-10-09T07:41:00;16.50;;;11.60;;
27921;SDS011;15261;50.356;10.340;2023-10-09T07:43:27;14.77;;;9.23;;
27921;SDS011;15261;50.356;10.340;2023-10-09T07:46:01;12.70;;;8.25;;
27921;SDS011;15261;50.356;10.340;2023-10-09T07:48:31;10.90;;;8.25;;
27921;SDS011;15261;50.356;10.340;2023-10-09T07:51:18;8.57;;;7.68;;
27921;SDS011;15261;50.356;10.340;2023-10-09T07:53:57;12.20;;;7.65;;
27921;SDS011;15261;50.356;10.340;2023-10-09T07:56:32;13.07;;;9.20;;
27921;SDS011;15261;50.356;10.340;2023-10-09T07:59:03;9.90;;;7.30;;
27921;SDS011;15261;50.356;10.340;2023-10-09T08:01:35;13.10;;;7.60;;
27921;SDS011;15261;50.356;10.340;2023-10-09T08:04:17;9.18;;;7.88;;
27921;SDS011;15261;50.356;10.340;2023-10-09T08:07:13;10.45;;;7.80;;
27921;SDS011;15261;50.356;10.340;2023-10-09T08:09:51;11.57;;;7.45;;
27921;SDS011;15261;50.356;10.340;2023-10-09T08:12:46;11.40;;;7.20;;
27921;SDS011;15261;50.356;10.340;2023-10-09T08:15:15;9.65;;;6.53;;
27921;SDS011;15261;50.356;10.340;2023-10-09T08:17:44;9.82;;;6.30;;
27921;SDS011;15261;50.356;10.340;2023-10-09T08:20:24;10.45;;;6.75;;
27921;SDS011;15261;50.356;10.340;2023-10-09T08:23:01;9.40;;;6.28;;
27921;SDS011;15261;50.356;10.340;2023-10-09T08:25:29;12.88;;;6.05;;
27921;SDS011;15261;50.356;10.340;2023-10-09T08:27:59;9.88;;;6.05;;
27921;SDS011;15261;50.356;10.340;2023-10-09T08:30:44;10.48;;;6.45;;
27921;SDS011;15261;50.356;10.340;2023-10-09T08:33:19;8.27;;;6.13;;
27921;SDS011;15261;50.356;10.340;2023-10-09T08:35:50;12.10;;;5.78;;
27921;SDS011;15261;50.356;10.340;2023-10-09T08:38:20;10.82;;;5.82;;
27921;SDS011;15261;50.356;10.340;2023-10-09T08:40:48;9.75;;;5.88;;
27921;SDS011;15261;50.356;10.340;2023-10-09T08:43:19;8.85;;;5.82;;
27921;SDS011;15261;50.356;10.340;2023-10-09T08:45:49;7.22;;;6.28;;
27921;SDS011;15261;50.356;10.340;2023-10-09T08:48:18;9.70;;;6.13;;
27921;SDS011;15261;50.356;10.340;2023-10-09T08:50:48;8.77;;;6.93;;
27921;SDS011;15261;50.356;10.340;2023-10-09T08:53:19;10.82;;;6.47;;
27921;SDS011;15261;50.356;10.340;2023-10-09T08:55:45;12.13;;;6.50;;
27921;SDS011;15261;50.356;10.340;2023-10-09T08:58:11;9.48;;;6.22;;
27921;SDS011;15261;50.356;10.340;2023-10-09T09:01:01;7.50;;;5.82;;
27921;SDS011;15261;50.356;10.340;2023-10-09T09:03:34;9.13;;;6.32;;
27921;SDS011;15261;50.356;10.340;2023-10-09T09:06:08;8.35;;;5.78;;
27921;SDS011;15261;50.356;10.340;2023-10-09T09:08:39;11.10;;;6.35;;
27921;SDS011;15261;50.356;10.340;2023-10-09T09:11:07;16.48;;;14.70;;
27921;SDS011;15261;50.356;10.340;2023-10-09T09:13:47;15.65;;;9.00;;
27921;SDS011;15261;50.356;10.340;2023-10-09T09:16:30;26.85;;;20.60;;
27921;SDS011;15261;50.356;10.340;2023-10-09T09:19:00;11.48;;;9.13;;
27921;SDS011;15261;50.356;10.340;2023-10-09T09:21:39;8.55;;;5.70;;
27921;SDS011;15261;50.356;10.340;2023-10-09T09:24:09;8.48;;;5.63;;
27921;SDS011;15261;50.356;10.340;2023-10-09T09:26:49;7.93;;;5.53;;
27921;SDS011;15261;50.356;10.340;2023-10-09T09:29:42;10.98;;;5.53;;
27921;SDS011;15261;50.356;10.340;2023-10-09T09:32:13;11.65;;;6.05;;
27921;SDS011;15261;50.356;10.340;2023-10-09T09:35:02;7.10;;;5.65;;
27921;SDS011;15261;50.356;10.340;2023-10-09T09:37:32;10.90;;;5.90;;
27921;SDS011;15261;50.356;10.340;2023-10-09T09:40:07;6.75;;;5.40;;
27921;SDS011;15261;50.356;10.340;2023-10-09T09:43:09;8.02;;;5.53;;
27921;SDS011;15261;50.356;10.340;2023-10-09T09:45:46;5.90;;;4.97;;
27921;SDS011;15261;50.356;10.340;2023-10-09T09:48:14;7.25;;;5.43;;
27921;SDS011;15261;50.356;10.340;2023-10-09T09:50:41;8.48;;;5.97;;
27921;SDS011;15261;50.356;10.340;2023-10-09T09:55:45;10.27;;;5.75;;
27921;SDS011;15261;50.356;10.340;2023-10-09T09:58:17;7.68;;;5.68;;
27921;SDS011;15261;50.356;10.340;2023-10-09T10:00:48;8.35;;;5.55;;
27921;SDS011;15261;50.356;10.340;2023-10-09T10:03:19;7.90;;;5.55;;
27921;SDS011;15261;50.356;10.340;2023-10-09T10:05:49;7.28;;;5.45;;
27921;SDS011;15261;50.356;10.340;2023-10-09T10:08:20;7.70;;;5.15;;
27921;SDS011;15261;50.356;10.340;2023-10-09T10:10:46;11.25;;;6.68;;
27921;SDS011;15261;50.356;10.340;2023-10-09T10:13:17;8.80;;;6.72;;
27921;SDS011;15261;50.356;10.340;2023-10-09T10:18:23;8.77;;;5.80;;
27921;SDS011;15261;50.356;10.340;2023-10-09T10:23:45;9.98;;;6.50;;
27921;SDS011;15261;50.356;10.340;2023-10-09T10:26:18;10.63;;;5.93;;
27921;SDS011;15261;50.356;10.340;2023-10-09T10:34:19;10.77;;;6.75;;
27921;SDS011;15261;50.356;10.340;2023-10-09T10:36:48;8.02;;;5.70;;
27921;SDS011;15261;50.356;10.340;2023-10-09T10:39:17;8.63;;;5.78;;
27921;SDS011;15261;50.356;10.340;2023-10-09T10:41:53;9.32;;;6.53;;
27921;SDS011;15261;50.356;10.340;2023-10-09T10:44:29;9.57;;;5.82;;
27921;SDS011;15261;50.356;10.340;2023-10-09T10:46:58;11.13;;;5.82;;
27921;SDS011;15261;50.356;10.340;2023-10-09T10:49:24;8.75;;;5.55;;
27921;SDS011;15261;50.356;10.340;2023-10-09T10:51:51;8.02;;;5.47;;
27921;SDS011;15261;50.356;10.340;2023-10-09T10:54:35;8.68;;;5.10;;
27921;SDS011;15261;50.356;10.340;2023-10-09T10:57:00;10.02;;;5.65;;
27921;SDS011;15261;50.356;10.340;2023-10-09T10:59:30;9.40;;;5.97;;
27921;SDS011;15261;50.356;10.340;2023-10-09T11:02:03;10.13;;;5.60;;
27921;SDS011;15261;50.356;10.340;2023-10-09T11:04:35;11.48;;;5.30;;
27921;SDS011;15261;50.356;10.340;2023-10-09T11:07:01;7.60;;;5.50;;
27921;SDS011;15261;50.356;10.340;2023-10-09T11:09:46;9.18;;;5.72;;
27921;SDS011;15261;50.356;10.340;2023-10-09T11:12:51;6.75;;;4.95;;
27921;SDS011;15261;50.356;10.340;2023-10-09T11:18:39;8.38;;;5.18;;
27921;SDS011;15261;50.356;10.340;2023-10-09T11:21:13;14.20;;;5.95;;
27921;SDS011;15261;50.356;10.340;2023-10-09T11:23:40;8.52;;;5.38;;
27921;SDS011;15261;50.356;10.340;2023-10-09T11:26:22;7.60;;;5.53;;
27921;SDS011;15261;50.356;10.340;2023-10-09T11:29:12;8.82;;;5.38;;
27921;SDS011;15261;50.356;10.340;2023-10-09T11:32:07;10.05;;;5.70;;
27921;SDS011;15261;50.356;10.340;2023-10-09T11:34:43;8.90;;;5.57;;
27921;SDS011;15261;50.356;10.340;2023-10-09T11:37:19;9.45;;;5.47;;
27921;SDS011;15261;50.356;10.340;2023-10-09T11:39:55;8.18;;;6.00;;
27921;SDS011;15261;50.356;10.340;2023-10-09T11:42:22;10.45;;;5.97;;
27921;SDS011;15261;50.356;10.340;2023-10-09T11:45:06;8.13;;;5.32;;
27921;SDS011;15261;50.356;10.340;2023-10-09T11:47:50;11.63;;;5.50;;
27921;SDS011;15261;50.356;10.340;2023-10-09T11:50:39;12.80;;;5.40;;
27921;SDS011;15261;50.356;10.340;2023-10-09T11:53:18;9.18;;;5.85;;
27921;SDS011;15261;50.356;10.340;2023-10-09T11:55:58;8.13;;;5.45;;
27921;SDS011;15261;50.356;10.340;2023-10-09T11:58:24;8.40;;;5.82;;
27921;SDS011;15261;50.356;10.340;2023-10-09T12:00:54;12.90;;;5.40;;
27921;SDS011;15261;50.356;10.340;2023-10-09T12:03:43;10.27;;;5.50;;
27921;SDS011;15261;50.356;10.340;2023-10-09T12:06:14;8.13;;;5.68;;
27921;SDS011;15261;50.356;10.340;2023-10-09T12:08:44;13.20;;;5.88;;
27921;SDS011;15261;50.356;10.340;2023-10-09T12:11:12;7.07;;;5.22;;
27921;SDS011;15261;50.356;10.340;2023-10-09T12:13:39;7.22;;;5.30;;
27921;SDS011;15261;50.356;10.340;2023-10-09T12:16:08;11.68;;;6.38;;
27921;SDS011;15261;50.356;10.340;2023-10-09T12:18:34;9.50;;;5.80;;
27921;SDS011;15261;50.356;10.340;2023-10-09T12:21:02;12.13;;;5.72;;
27921;SDS011;15261;50.356;10.340;2023-10-09T12:23:29;7.28;;;5.55;;
27921;SDS011;15261;50.356;10.340;2023-10-09T12:26:00;6.35;;;5.35;;
27921;SDS011;15261;50.356;10.340;2023-10-09T12:28:26;8.60;;;5.78;;
27921;SDS011;15261;50.356;10.340;2023-10-09T12:30:53;10.80;;;5.60;;
27921;SDS011;15261;50.356;10.340;2023-10-09T12:33:19;10.38;;;5.28;;
27921;SDS011;15261;50.356;10.340;2023-10-09T12:35:55;11.43;;;5.88;;
27921;SDS011;15261;50.356;10.340;2023-10-09T12:38:28;6.70;;;4.97;;
27921;SDS011;15261;50.356;10.340;2023-10-09T12:41:03;10.93;;;5.68;;
27921;SDS011;15261;50.356;10.340;2023-10-09T12:43:43;7.35;;;5.22;;
27921;SDS011;15261;50.356;10.340;2023-10-09T12:46:08;9.27;;;5.68;;
27921;SDS011;15261;50.356;10.340;2023-10-09T12:48:41;7.90;;;5.32;;
27921;SDS011;15261;50.356;10.340;2023-10-09T12:51:13;9.63;;;5.55;;
27921;SDS011;15261;50.356;10.340;2023-10-09T12:53:45;8.27;;;5.45;;
27921;SDS011;15261;50.356;10.340;2023-10-09T12:56:13;10.13;;;5.75;;
27921;SDS011;15261;50.356;10.340;2023-10-09T12:58:43;9.80;;;5.97;;
27921;SDS011;15261;50.356;10.340;2023-10-09T13:01:17;10.15;;;5.57;;
27921;SDS011;15261;50.356;10.340;2023-10-09T13:03:45;10.82;;;5.65;;
27921;SDS011;15261;50.356;10.340;2023-10-09T13:06:14;9.30;;;5.72;;
27921;SDS011;15261;50.356;10.340;2023-10-09T13:08:40;9.10;;;5.63;;
27921;SDS011;15261;50.356;10.340;2023-10-09T13:11:10;8.52;;;5.43;;
27921;SDS011;15261;50.356;10.340;2023-10-09T13:13:39;11.35;;;5.88;;
27921;SDS011;15261;50.356;10.340;2023-10-09T13:16:12;8.32;;;5.68;;
27921;SDS011;15261;50.356;10.340;2023-10-09T13:18:55;10.95;;;5.60;;
27921;SDS011;15261;50.356;10.340;2023-10-09T13:21:23;11.05;;;5.75;;
27921;SDS011;15261;50.356;10.340;2023-10-09T13:23:51;10.48;;;5.60;;
27921;SDS011;15261;50.356;10.340;2023-10-09T13:26:19;8.30;;;5.50;;
27921;SDS011;15261;50.356;10.340;2023-10-09T13:28:53;8.95;;;5.40;;
27921;SDS011;15261;50.356;10.340;2023-10-09T13:31:19;8.27;;;5.40;;
27921;SDS011;15261;50.356;10.340;2023-10-09T13:33:46;10.57;;;5.53;;
27921;SDS011;15261;50.356;10.340;2023-10-09T13:36:13;8.10;;;5.60;;
27921;SDS011;15261;50.356;10.340;2023-10-09T13:38:44;6.30;;;5.30;;
27921;SDS011;15261;50.356;10.340;2023-10-09T13:41:10;9.50;;;5.45;;
27921;SDS011;15261;50.356;10.340;2023-10-09T13:43:40;11.68;;;5.30;;
27921;SDS011;15261;50.356;10.340;2023-10-09T13:46:06;12.48;;;5.55;;
27921;SDS011;15261;50.356;10.340;2023-10-09T13:48:33;9.15;;;5.88;;
27921;SDS011;15261;50.356;10.340;2023-10-09T13:51:09;10.70;;;5.43;;
27921;SDS011;15261;50.356;10.340;2023-10-09T13:53:48;8.68;;;5.55;;
27921;SDS011;15261;50.356;10.340;2023-10-09T13:56:15;14.43;;;6.20;;
27921;SDS011;15261;50.356;10.340;2023-10-09T13:58:48;11.50;;;6.25;;
27921;SDS011;15261;50.356;10.340;2023-10-09T14:01:16;8.20;;;5.68;;
27921;SDS011;15261;50.356;10.340;2023-10-09T14:03:57;9.52;;;5.93;;
27921;SDS011;15261;50.356;10.340;2023-10-09T14:06:25;13.48;;;6.53;;
27921;SDS011;15261;50.356;10.340;2023-10-09T14:09:02;11.00;;;5.72;;
27921;SDS011;15261;50.356;10.340;2023-10-09T14:11:30;12.18;;;6.30;;
27921;SDS011;15261;50.356;10.340;2023-10-09T14:13:56;7.97;;;5.85;;
27921;SDS011;15261;50.356;10.340;2023-10-09T14:16:25;11.23;;;5.65;;
27921;SDS011;15261;50.356;10.340;2023-10-09T14:18:54;9.68;;;5.63;;
27921;SDS011;15261;50.356;10.340;2023-10-09T14:21:29;11.00;;;5.72;;
27921;SDS011;15261;50.356;10.340;2023-10-09T14:23:58;10.77;;;6.00;;
27921;SDS011;15261;50.356;10.340;2023-10-09T14:26:24;9.00;;;5.72;;
27921;SDS011;15261;50.356;10.340;2023-10-09T14:28:54;10.35;;;6.05;;
27921;SDS011;15261;50.356;10.340;2023-10-09T14:31:25;10.32;;;6.13;;
27921;SDS011;15261;50.356;10.340;2023-10-09T14:33:53;13.13;;;5.93;;
27921;SDS011;15261;50.356;10.340;2023-10-09T14:36:20;11.63;;;6.55;;
27921;SDS011;15261;50.356;10.340;2023-10-09T14:38:47;8.63;;;5.70;;
27921;SDS011;15261;50.356;10.340;2023-10-09T14:41:17;11.88;;;6.25;;
27921;SDS011;15261;50.356;10.340;2023-10-09T14:43:46;13.65;;;5.97;;
27921;SDS011;15261;50.356;10.340;2023-10-09T14:46:13;12.43;;;6.10;;
27921;SDS011;15261;50.356;10.340;2023-10-09T14:48:39;13.38;;;6.32;;
27921;SDS011;15261;50.356;10.340;2023-10-09T14:51:06;8.60;;;5.70;;
27921;SDS011;15261;50.356;10.340;2023-10-09T14:53:35;10.68;;;6.20;;
27921;SDS011;15261;50.356;10.340;2023-10-09T14:56:02;10.10;;;5.30;;
27921;SDS011;15261;50.356;10.340;2023-10-09T14:58:33;11.32;;;5.82;;
27921;SDS011;15261;50.356;10.340;2023-10-09T15:01:09;13.35;;;5.60;;
27921;SDS011;15261;50.356;10.340;2023-10-09T15:03:37;9.30;;;5.68;;
27921;SDS011;15261;50.356;10.340;2023-10-09T15:06:03;12.75;;;6.03;;
27921;SDS011;15261;50.356;10.340;2023-10-09T15:08:33;9.98;;;5.47;;
27921;SDS011;15261;50.356;10.340;2023-10-09T15:11:00;8.95;;;5.47;;
27921;SDS011;15261;50.356;10.340;2023-10-09T15:13:25;7.82;;;5.80;;
27921;SDS011;15261;50.356;10.340;2023-10-09T15:15:53;12.13;;;5.85;;
27921;SDS011;15261;50.356;10.340;2023-10-09T15:18:20;10.02;;;5.65;;
27921;SDS011;15261;50.356;10.340;2023-10-09T15:20:47;8.77;;;5.57;;
27921;SDS011;15261;50.356;10.340;2023-10-09T15:23:13;10.23;;;5.43;;
27921;SDS011;15261;50.356;10.340;2023-10-09T15:25:39;9.10;;;6.30;;
27921;SDS011;15261;50.356;10.340;2023-10-09T15:28:07;10.85;;;6.03;;
27921;SDS011;15261;50.356;10.340;2023-10-09T15:30:34;10.15;;;5.47;;
27921;SDS011;15261;50.356;10.340;2023-10-09T15:33:04;12.02;;;5.60;;
27921;SDS011;15261;50.356;10.340;2023-10-09T15:35:33;9.55;;;6.15;;
27921;SDS011;15261;50.356;10.340;2023-10-09T15:38:00;11.57;;;6.30;;
27921;SDS011;15261;50.356;10.340;2023-10-09T15:40:28;8.98;;;5.95;;
27921;SDS011;15261;50.356;10.340;2023-10-09T15:43:00;7.40;;;5.40;;
27921;SDS011;15261;50.356;10.340;2023-10-09T15:45:28;9.40;;;6.05;;
27921;SDS011;15261;50.356;10.340;2023-10-09T15:47:55;9.77;;;5.38;;
27921;SDS011;15261;50.356;10.340;2023-10-09T15:50:21;11.30;;;5.97;;
27921;SDS011;15261;50.356;10.340;2023-10-09T15:52:53;11.82;;;5.75;;
27921;SDS011;15261;50.356;10.340;2023-10-09T15:55:20;11.88;;;6.10;;
27921;SDS011;15261;50.356;10.340;2023-10-09T15:57:49;11.45;;;6.30;;
27921;SDS011;15261;50.356;10.340;2023-10-09T16:00:17;10.77;;;6.15;;
27921;SDS011;15261;50.356;10.340;2023-10-09T16:02:52;7.50;;;5.93;;
27921;SDS011;15261;50.356;10.340;2023-10-09T16:05:21;9.10;;;5.63;;
27921;SDS011;15261;50.356;10.340;2023-10-09T16:15:09;6.95;;;5.63;;
27921;SDS011;15261;50.356;10.340;2023-10-09T16:17:35;8.45;;;6.25;;
27921;SDS011;15261;50.356;10.340;2023-10-09T16:20:02;12.85;;;6.68;;
27921;SDS011;15261;50.356;10.340;2023-10-09T16:22:30;9.18;;;8.20;;
27921;SDS011;15261;50.356;10.340;2023-10-09T16:25:00;17.45;;;14.32;;
27921;SDS011;15261;50.356;10.340;2023-10-09T16:27:26;13.05;;;7.07;;
27921;SDS011;15261;50.356;10.340;2023-10-09T16:29:52;11.93;;;8.73;;
27921;SDS011;15261;50.356;10.340;2023-10-09T16:32:19;13.02;;;9.65;;
27921;SDS011;15261;50.356;10.340;2023-10-09T16:34:48;11.18;;;6.95;;